createdAt,value
2019-04-14T00:01:30.858Z,63.90
2019-04-14T00:04:00.979Z,60.38
2019-04-14T00:06:30.618Z,65.17
2019-04-14T00:08:59.318Z,57.78
2019-04-14T00:11:28.061Z,65.17
2019-04-14T00:13:56.747Z,64.05
2019-04-14T00:16:25.213Z,69.70
2019-04-14T00:18:54.045Z,60.60
2019-04-14T00:21:22.558Z,61.25
2019-04-14T00:23:52.450Z,62.55
2019-04-14T00:26:27.109Z,63.75
2019-04-14T00:28:57.773Z,60.65
2019-04-14T00:31:28.410Z,63.33
2019-04-14T00:33:59.106Z,63.33
2019-04-14T00:36:30.419Z,59.40
2019-04-14T00:38:59.074Z,58.60
2019-04-14T00:41:43.907Z,66.15
2019-04-14T00:44:16.763Z,63.70
2019-04-14T00:46:53.854Z,63.90
2019-04-14T00:49:22.451Z,61.30
2019-04-14T00:51:51.018Z,66.12
2019-04-14T00:54:19.658Z,66.87
2019-04-14T00:56:48.330Z,67.58
2019-04-14T00:59:17.900Z,65.10
2019-04-14T01:01:46.502Z,65.70
2019-04-14T01:04:14.945Z,68.83
2019-04-14T01:06:44.716Z,62.93
2019-04-14T01:09:15.129Z,76.92
2019-04-14T01:11:44.349Z,65.75
2019-04-14T01:14:12.894Z,69.70
2019-04-14T01:16:41.458Z,70.92
2019-04-14T01:19:11.194Z,67.27
2019-04-14T01:21:39.874Z,74.35
2019-04-14T01:24:09.565Z,64.50
2019-04-14T01:26:38.151Z,64.77
2019-04-14T01:29:07.904Z,74.80
2019-04-14T01:31:36.629Z,71.45
2019-04-14T01:34:06.231Z,71.55
2019-04-14T01:36:36.680Z,78.30
2019-04-14T01:39:06.984Z,77.60
2019-04-14T01:41:36.707Z,55.47
2019-04-14T01:44:06.557Z,69.95
2019-04-14T01:46:35.847Z,73.20
2019-04-14T01:49:05.562Z,72.30
2019-04-14T01:51:41.734Z,74.00
2019-04-14T01:54:14.949Z,74.97
2019-04-14T01:56:58.054Z,73.05
2019-04-14T01:59:26.802Z,73.70
2019-04-14T02:01:58.940Z,74.25
2019-04-14T02:04:27.435Z,72.53
2019-04-14T02:06:55.885Z,74.37
2019-04-14T02:09:25.141Z,75.32
2019-04-14T02:11:53.750Z,78.15
2019-04-14T02:14:23.270Z,81.30
2019-04-14T02:16:56.112Z,76.92
2019-04-14T02:19:22.135Z,75.28
2019-04-14T02:21:51.907Z,78.28
2019-04-14T02:24:20.525Z,75.32
2019-04-14T02:26:50.188Z,72.82
2019-04-14T02:29:19.049Z,82.20
2019-04-14T02:32:17.898Z,80.20
2019-04-14T02:35:00.258Z,83.75
2019-04-14T02:37:31.855Z,83.58
2019-04-14T02:39:48.500Z,77.82
2019-04-14T02:44:46.030Z,78.20
2019-04-14T02:47:37.131Z,76.00
2019-04-14T02:49:53.964Z,79.32
2019-04-14T02:54:51.643Z,82.33
2019-04-14T02:57:17.474Z,88.78
2019-04-14T03:00:03.468Z,84.07
2019-04-14T03:04:49.162Z,72.92
2019-04-14T03:07:21.914Z,77.72
2019-04-14T03:12:16.782Z,75.57
2019-04-14T03:14:50.341Z,83.45
2019-04-14T03:22:38.931Z,76.72
2019-04-14T03:25:08.022Z,81.20
2019-04-14T03:28:12.521Z,80.62
2019-04-14T03:30:57.795Z,79.70
2019-04-14T03:38:20.559Z,84.58
2019-04-14T03:43:11.316Z,76.73
2019-04-14T03:48:42.795Z,77.12
2019-04-14T03:50:36.819Z,76.02
2019-04-14T03:53:15.864Z,78.50
2019-04-14T03:55:49.401Z,80.30
2019-04-14T03:58:14.329Z,77.20
2019-04-14T04:00:44.273Z,82.42
2019-04-14T04:03:13.059Z,74.60
2019-04-14T04:05:41.622Z,79.20
2019-04-14T04:08:11.398Z,74.05
2019-04-14T04:10:48.589Z,83.82
2019-04-14T04:13:17.304Z,80.45
2019-04-14T04:15:45.756Z,82.20
2019-04-14T04:18:24.422Z,87.10
2019-04-14T04:20:57.183Z,81.92
2019-04-14T04:23:27.366Z,86.25
2019-04-14T04:26:00.258Z,80.85
2019-04-14T04:28:47.163Z,83.03
2019-04-14T04:31:20.331Z,81.63
2019-04-14T04:34:07.625Z,70.97
2019-04-14T04:36:37.854Z,72.45
2019-04-14T04:39:12.753Z,69.95
2019-04-14T04:41:42.784Z,69.05
2019-04-14T04:44:11.618Z,68.50
2019-04-14T04:46:40.199Z,66.75
2019-04-14T04:49:15.097Z,69.40
2019-04-14T04:51:39.933Z,70.50
2019-04-14T04:54:08.698Z,68.80
2019-04-14T04:56:38.153Z,67.97
2019-04-14T04:59:07.548Z,70.03
2019-04-14T05:01:36.496Z,72.17
2019-04-14T05:04:05.222Z,83.25
2019-04-14T05:07:01.584Z,80.97
2019-04-14T05:09:39.093Z,78.33
2019-04-14T05:12:26.255Z,79.58
2019-04-14T05:15:03.579Z,87.00
2019-04-14T05:17:34.373Z,86.28
2019-04-14T05:20:03.402Z,64.47
2019-04-14T05:22:33.172Z,89.45
2019-04-14T05:25:02.062Z,88.00
2019-04-14T05:27:30.510Z,90.55
2019-04-14T05:30:00.319Z,94.03
2019-04-14T05:32:30.419Z,84.37
2019-04-14T05:34:59.229Z,94.50
2019-04-14T05:37:27.682Z,91.20
2019-04-14T05:39:56.961Z,90.87
2019-04-14T05:42:27.101Z,92.60
2019-04-14T05:44:55.863Z,90.55
2019-04-14T05:47:24.334Z,90.55
2019-04-14T05:49:55.003Z,92.62
2019-04-14T05:52:23.096Z,96.22
2019-04-14T05:54:51.560Z,86.87
2019-04-14T05:57:20.078Z,90.38
2019-04-14T05:59:48.605Z,100.22
2019-04-14T06:02:18.043Z,92.22
2019-04-14T06:04:46.789Z,97.10
2019-04-14T06:07:15.317Z,90.35
2019-04-14T06:09:43.766Z,99.00
2019-04-14T06:12:13.919Z,97.00
2019-04-14T06:14:42.364Z,94.17
2019-04-14T06:17:10.966Z,97.33
2019-04-14T06:19:40.723Z,95.00
2019-04-14T06:22:09.410Z,97.80
2019-04-14T06:24:37.922Z,92.35
2019-04-14T06:27:06.379Z,93.20
2019-04-14T06:29:34.837Z,88.75
2019-04-14T06:32:04.940Z,97.50
2019-04-14T06:34:47.230Z,95.40
2019-04-14T06:37:32.452Z,90.32
2019-04-14T06:40:02.527Z,97.53
2019-04-14T06:42:31.078Z,91.67
2019-04-14T06:44:59.516Z,89.25
2019-04-14T06:47:27.974Z,89.20
2019-04-14T06:49:56.520Z,90.05
2019-04-14T06:52:25.037Z,97.85
2019-04-14T06:54:53.490Z,95.60
2019-04-14T06:57:21.965Z,88.47
2019-04-14T06:59:50.437Z,90.45
2019-04-14T07:02:19.000Z,88.60
2019-04-14T07:04:47.520Z,94.22
2019-04-14T07:07:16.268Z,87.45
2019-04-14T07:09:44.732Z,89.55
2019-04-14T07:12:13.363Z,87.10
2019-04-14T07:14:41.920Z,94.15
2019-04-14T07:17:10.399Z,100.53
2019-04-14T07:19:39.023Z,91.90
2019-04-14T07:22:07.544Z,96.63
2019-04-14T07:24:36.091Z,90.07
2019-04-14T07:27:04.842Z,84.90
2019-04-14T07:29:37.947Z,90.28
2019-04-14T07:32:08.105Z,87.90
2019-04-14T07:34:43.709Z,85.38
2019-04-14T07:37:19.768Z,91.30
2019-04-14T07:39:55.730Z,83.78
2019-04-14T07:42:37.714Z,81.25
2019-04-14T07:45:11.015Z,74.92
2019-04-14T07:47:50.362Z,80.97
2019-04-14T07:50:37.142Z,81.55
2019-04-14T07:53:22.141Z,75.37
2019-04-14T07:55:55.363Z,75.45
2019-04-14T07:58:40.889Z,75.67
2019-04-14T08:01:10.971Z,78.17
2019-04-14T08:03:57.245Z,73.45
2019-04-14T08:06:25.722Z,77.40
2019-04-14T08:08:54.225Z,71.57
2019-04-14T08:11:22.662Z,75.10
2019-04-14T08:13:51.129Z,71.33
2019-04-14T08:16:19.623Z,71.57
2019-04-14T08:18:48.127Z,70.65
2019-04-14T08:21:16.681Z,73.70
2019-04-14T08:23:45.189Z,74.55
2019-04-14T08:26:13.676Z,69.20
2019-04-14T08:28:42.189Z,70.40
2019-04-14T08:31:10.718Z,75.83
2019-04-14T08:33:39.236Z,76.35
2019-04-14T08:36:07.722Z,67.95
2019-04-14T08:38:36.180Z,70.52
2019-04-14T08:41:04.836Z,70.97
2019-04-14T08:43:51.403Z,70.97
2019-04-14T08:46:24.349Z,67.00
2019-04-14T08:48:57.639Z,63.40
2019-04-14T08:51:44.057Z,67.35
2019-04-14T08:54:14.230Z,66.70
2019-04-14T08:56:46.945Z,66.30
2019-04-14T08:59:33.242Z,67.12
2019-04-14T09:02:06.525Z,64.53
2019-04-14T09:04:36.690Z,66.05
2019-04-14T09:07:12.889Z,59.73
2019-04-14T09:09:49.170Z,63.10
2019-04-14T09:12:25.171Z,62.83
2019-04-14T09:14:57.169Z,67.70
2019-04-14T09:17:24.227Z,66.92
2019-04-14T09:19:52.758Z,64.97
2019-04-14T09:22:21.230Z,62.83
2019-04-14T09:24:49.737Z,65.08
2019-04-14T09:27:18.290Z,59.55
2019-04-14T09:29:46.934Z,62.00
2019-04-14T09:32:15.510Z,62.50
2019-04-14T09:34:43.980Z,59.23
2019-04-14T09:37:12.542Z,60.98
2019-04-14T09:39:41.005Z,63.83
2019-04-14T09:42:09.674Z,60.83
2019-04-14T09:44:38.225Z,57.75
2019-04-14T09:47:06.745Z,55.60
2019-04-14T09:49:35.374Z,59.27
2019-04-14T09:52:04.038Z,58.68
2019-04-14T09:54:32.540Z,56.33
2019-04-14T09:57:01.125Z,60.65
2019-04-14T09:59:29.712Z,56.88
2019-04-14T10:01:58.399Z,57.53
2019-04-14T10:04:27.012Z,59.27
2019-04-14T10:06:55.579Z,59.77
2019-04-14T10:09:24.164Z,57.03
2019-04-14T10:11:56.185Z,59.08
2019-04-14T10:14:23.074Z,54.13
2019-04-14T10:16:51.580Z,59.38
2019-04-14T10:19:20.051Z,54.05
2019-04-14T10:21:48.537Z,55.28
2019-04-14T10:24:17.072Z,53.80
2019-04-14T10:26:45.646Z,54.48
2019-04-14T10:29:14.139Z,56.23
2019-04-14T10:31:42.673Z,54.18
2019-04-14T10:34:11.151Z,54.55
2019-04-14T10:36:39.691Z,54.55
2019-04-14T10:39:08.175Z,53.90
2019-04-14T10:41:44.291Z,55.17
2019-04-14T10:44:12.833Z,54.08
2019-04-14T10:46:41.292Z,50.45
2019-04-14T10:49:09.844Z,49.27
2019-04-14T10:51:38.342Z,53.05
2019-04-14T10:54:06.933Z,50.58
2019-04-14T10:56:35.395Z,48.25
2019-04-14T10:59:03.839Z,48.98
2019-04-14T11:01:32.323Z,46.48
2019-04-14T11:04:00.898Z,46.90
2019-04-14T11:06:49.373Z,45.08
2019-04-14T11:09:17.993Z,48.25
2019-04-14T11:11:46.509Z,48.40
2019-04-14T11:14:15.033Z,45.78
2019-04-14T11:16:43.626Z,42.70
2019-04-14T11:19:12.165Z,45.15
2019-04-14T11:21:42.744Z,44.80
2019-04-14T11:24:10.857Z,42.62
2019-04-14T11:26:39.466Z,46.68
2019-04-14T11:29:07.966Z,42.33
2019-04-14T11:31:46.735Z,39.25
2019-04-14T11:34:16.844Z,40.78
2019-04-14T11:36:49.689Z,44.98
2019-04-14T11:39:21.988Z,44.30
2019-04-14T11:41:50.657Z,44.25
2019-04-14T11:44:19.307Z,45.88
2019-04-14T11:46:47.789Z,50.25
2019-04-14T11:49:16.302Z,55.35
2019-04-14T11:51:54.790Z,50.50
2019-04-14T11:54:15.311Z,43.50
2019-04-14T11:56:43.844Z,49.80
2019-04-14T11:59:12.336Z,44.55
2019-04-14T12:02:00.619Z,45.23
2019-04-14T12:04:30.735Z,49.48
2019-04-14T12:07:15.943Z,47.33
2019-04-14T12:09:48.791Z,45.75
2019-04-14T12:12:17.269Z,40.80
2019-04-14T12:14:45.725Z,40.23
2019-04-14T12:17:14.208Z,37.20
2019-04-14T12:19:42.771Z,50.03
2019-04-14T12:22:11.281Z,46.33
2019-04-14T12:24:39.753Z,38.23
2019-04-14T12:27:08.339Z,49.95
2019-04-14T12:29:36.941Z,45.15
2019-04-14T12:32:06.966Z,45.12
2019-04-14T12:34:35.455Z,44.42
2019-04-14T12:37:04.106Z,46.48
2019-04-14T12:39:32.714Z,44.10
2019-04-14T12:42:02.947Z,41.37
2019-04-14T12:44:35.830Z,50.12
2019-04-14T12:47:21.094Z,43.92
2019-04-14T12:49:51.265Z,38.08
2019-04-14T12:52:22.154Z,40.10
2019-04-14T12:54:50.916Z,43.13
2019-04-14T12:57:39.487Z,38.13
2019-04-14T13:00:10.022Z,38.63
2019-04-14T13:02:40.320Z,32.85
2019-04-14T13:05:09.336Z,43.97
2019-04-14T13:07:38.173Z,36.68
2019-04-14T13:10:07.845Z,43.87
2019-04-14T13:12:36.358Z,41.70
2019-04-14T13:15:06.867Z,38.30
2019-04-14T13:17:35.682Z,29.77
2019-04-14T13:20:07.629Z,43.90
2019-04-14T13:22:36.217Z,41.15
2019-04-14T13:25:05.356Z,37.70
2019-04-14T13:27:33.888Z,36.03
2019-04-14T13:30:02.451Z,41.42
2019-04-14T13:32:36.234Z,43.00
2019-04-14T13:35:01.254Z,43.57
2019-04-14T13:37:29.773Z,40.23
2019-04-14T13:39:58.233Z,41.55
2019-04-14T13:42:26.775Z,38.55
2019-04-14T13:44:55.434Z,38.63
2019-04-14T13:47:23.892Z,38.60
2019-04-14T13:49:52.371Z,39.65
2019-04-14T13:52:20.809Z,38.00
2019-04-14T13:54:49.565Z,37.25
2019-04-14T13:57:18.203Z,40.33
2019-04-14T13:59:46.890Z,36.95
2019-04-14T14:02:15.341Z,34.65
2019-04-14T14:04:44.107Z,33.23
2019-04-14T14:07:12.707Z,34.80
2019-04-14T14:09:41.186Z,32.50
2019-04-14T14:12:14.218Z,30.70
2019-04-14T14:14:44.405Z,29.90
2019-04-14T14:17:14.532Z,31.37
2019-04-14T14:19:45.160Z,30.17
2019-04-14T14:22:15.646Z,29.48
2019-04-14T14:24:48.587Z,26.75
2019-04-14T14:27:17.128Z,31.33
2019-04-14T14:29:45.604Z,33.90
2019-04-14T14:32:15.928Z,29.92
2019-04-14T14:34:44.458Z,33.10
2019-04-14T14:37:12.988Z,31.95
2019-04-14T14:39:41.427Z,32.73
2019-04-14T14:42:10.116Z,28.38
2019-04-14T14:44:40.373Z,26.07
2019-04-14T14:47:10.570Z,23.93
2019-04-14T14:49:57.024Z,26.70
2019-04-14T14:52:25.678Z,27.02
2019-04-14T14:54:54.205Z,25.90
2019-04-14T14:57:22.674Z,27.07
2019-04-14T14:59:51.195Z,26.75
2019-04-14T15:02:19.830Z,24.55
2019-04-14T15:04:48.298Z,26.65
2019-04-14T15:07:16.852Z,21.82
2019-04-14T15:09:45.297Z,21.57
2019-04-14T15:12:13.846Z,23.38
2019-04-14T15:14:42.290Z,25.45
2019-04-14T15:17:10.845Z,24.30
2019-04-14T15:19:39.311Z,24.02
2019-04-14T15:22:07.979Z,24.52
2019-04-14T15:24:36.588Z,27.50
2019-04-14T15:27:05.192Z,37.90
2019-04-14T15:29:33.638Z,25.25
2019-04-14T15:32:02.151Z,24.05
2019-04-14T15:34:30.712Z,18.73
2019-04-14T15:36:59.217Z,25.97
2019-04-14T15:39:27.738Z,25.37
2019-04-14T15:41:56.912Z,28.27
2019-04-14T15:44:25.673Z,23.77
2019-04-14T15:46:54.192Z,23.45
2019-04-14T15:49:22.990Z,22.55
2019-04-14T15:51:51.588Z,22.95
2019-04-14T15:54:20.066Z,25.72
2019-04-14T15:56:55.938Z,21.35
2019-04-14T15:59:42.703Z,20.20
2019-04-14T16:02:24.823Z,23.95
2019-04-14T16:04:54.928Z,21.77
2019-04-14T16:07:25.057Z,22.05
2019-04-14T16:10:11.668Z,22.48
2019-04-14T16:12:47.648Z,20.85
2019-04-14T16:15:32.602Z,27.90
2019-04-14T16:18:11.808Z,27.65
2019-04-14T16:20:41.970Z,23.73
2019-04-14T16:23:10.452Z,26.07
2019-04-14T16:25:52.625Z,21.52
2019-04-14T16:28:22.948Z,21.12
2019-04-14T16:31:09.370Z,23.60
2019-04-14T16:33:55.796Z,20.70
2019-04-14T16:36:24.361Z,24.80
2019-04-14T16:38:52.897Z,20.75
2019-04-14T16:41:21.396Z,17.90
2019-04-14T16:43:49.892Z,21.00
2019-04-14T16:46:18.389Z,21.48
2019-04-14T16:48:46.879Z,21.07
2019-04-14T16:51:17.132Z,18.30
2019-04-14T16:53:47.325Z,21.60
2019-04-14T16:56:23.187Z,21.25
2019-04-14T16:58:53.386Z,21.25
2019-04-14T17:01:23.859Z,20.90
2019-04-14T17:03:52.369Z,21.60
2019-04-14T17:06:20.921Z,23.22
2019-04-14T17:08:49.454Z,27.67
2019-04-14T17:11:18.020Z,21.82
2019-04-14T17:13:48.103Z,24.32
2019-04-14T17:16:20.783Z,25.05
2019-04-14T17:18:53.661Z,21.35
2019-04-14T17:21:34.515Z,21.52
2019-04-14T17:24:15.986Z,22.80
2019-04-14T17:26:41.580Z,25.37
2019-04-14T17:29:21.274Z,23.60
2019-04-14T17:31:51.650Z,23.57
2019-04-14T17:34:21.838Z,16.23
2019-04-14T17:36:52.009Z,23.12
2019-04-14T17:39:24.772Z,21.97
2019-04-14T17:42:07.377Z,20.40
2019-04-14T17:44:43.184Z,22.75
2019-04-14T17:47:19.129Z,20.12
2019-04-14T17:49:58.562Z,21.93
2019-04-14T17:52:28.804Z,21.77
2019-04-14T17:55:05.076Z,20.57
2019-04-14T17:57:35.602Z,21.25
2019-04-14T18:00:26.831Z,22.22
2019-04-14T18:02:56.999Z,25.08
2019-04-14T18:05:42.075Z,22.00
2019-04-14T18:08:12.422Z,22.50
2019-04-14T18:10:51.791Z,24.87
2019-04-14T18:13:24.666Z,24.35
2019-04-14T18:15:55.427Z,24.75
2019-04-14T18:18:31.960Z,24.77
2019-04-14T18:21:02.206Z,29.77
2019-04-14T18:23:30.783Z,32.20
2019-04-14T18:25:59.265Z,27.35
2019-04-14T18:28:46.162Z,27.27
2019-04-14T18:31:16.394Z,36.95
2019-04-14T18:33:49.106Z,29.85
2019-04-14T18:36:31.096Z,28.47
2019-04-14T18:39:17.807Z,31.97
2019-04-14T18:42:04.457Z,31.17
2019-04-14T18:44:34.665Z,33.83
2019-04-14T18:47:20.386Z,27.20
2019-04-14T18:49:50.838Z,29.48
2019-04-14T18:52:29.734Z,23.50
2019-04-14T18:55:02.842Z,68.35
2019-04-14T18:57:49.566Z,31.23
2019-04-14T19:00:22.957Z,31.65
2019-04-14T19:02:51.752Z,31.40
2019-04-14T19:05:21.241Z,28.17
2019-04-14T19:07:50.061Z,31.20
2019-04-14T19:10:18.965Z,28.77
2019-04-14T19:12:55.756Z,27.42
2019-04-14T19:15:29.073Z,26.82
2019-04-14T19:18:05.371Z,29.48
2019-04-14T19:20:34.530Z,26.05
2019-04-14T19:23:03.369Z,30.23
2019-04-14T19:25:31.945Z,29.20
2019-04-14T19:28:00.500Z,31.10
2019-04-14T19:30:29.111Z,28.47
2019-04-14T19:32:57.698Z,24.18
2019-04-14T19:35:26.968Z,25.57
2019-04-14T19:37:55.727Z,26.45
2019-04-14T19:40:24.466Z,26.97
2019-04-14T19:42:53.613Z,36.95
2019-04-14T19:45:22.295Z,26.45
2019-04-14T19:47:50.823Z,27.73
2019-04-14T19:50:19.537Z,24.95
2019-04-14T19:52:48.025Z,25.20
2019-04-14T19:55:20.634Z,22.07
2019-04-14T19:57:46.991Z,25.97
2019-04-14T20:00:15.983Z,22.35
2019-04-14T20:02:44.644Z,24.80
2019-04-14T20:05:13.283Z,23.42
2019-04-14T20:07:41.892Z,21.55
2019-04-14T20:10:11.688Z,20.68
2019-04-14T20:12:40.313Z,24.50
2019-04-14T20:15:10.655Z,22.15
2019-04-14T20:17:40.878Z,20.70
2019-04-14T20:20:14.307Z,21.73
2019-04-14T20:22:44.502Z,21.62
2019-04-14T20:25:14.637Z,22.13
2019-04-14T20:27:47.580Z,21.27
2019-04-14T20:30:17.789Z,20.88
2019-04-14T20:32:46.448Z,21.30
2019-04-14T20:35:15.440Z,21.75
2019-04-14T20:37:44.013Z,23.15
2019-04-14T20:40:12.913Z,22.00
2019-04-14T20:42:41.530Z,22.15
2019-04-14T20:45:11.999Z,21.52
2019-04-14T20:47:40.690Z,19.60
2019-04-14T20:50:09.478Z,21.12
2019-04-14T20:52:38.033Z,17.80
2019-04-14T20:55:08.264Z,20.40
2019-04-14T20:57:37.097Z,20.80
2019-04-14T21:00:07.004Z,19.42
2019-04-14T21:02:53.745Z,19.25
2019-04-14T21:05:38.983Z,20.82
2019-04-14T21:08:15.002Z,19.55
2019-04-14T21:10:57.385Z,26.10
2019-04-14T21:13:33.422Z,17.50
2019-04-14T21:16:19.008Z,20.48
2019-04-14T21:18:49.120Z,21.45
2019-04-14T21:21:22.348Z,19.10
2019-04-14T21:23:58.165Z,16.40
2019-04-14T21:26:28.397Z,23.62
2019-04-14T21:28:58.609Z,21.02
2019-04-14T21:31:31.408Z,21.05
2019-04-14T21:34:19.866Z,18.40
2019-04-14T21:36:52.909Z,24.77
2019-04-14T21:39:40.515Z,19.65
2019-04-14T21:42:08.518Z,19.62
2019-04-14T21:44:37.036Z,23.80
2019-04-14T21:47:05.893Z,15.90
2019-04-14T21:49:34.421Z,16.70
2019-04-14T21:52:04.503Z,20.68
2019-04-14T21:54:33.078Z,15.38
2019-04-14T21:57:15.316Z,12.28
2019-04-14T22:00:01.879Z,13.68
2019-04-14T22:02:37.694Z,13.93
2019-04-14T22:05:08.568Z,14.63
2019-04-14T22:07:41.454Z,14.13
2019-04-14T22:10:15.412Z,14.80
2019-04-14T22:12:43.914Z,12.85
2019-04-14T22:15:14.180Z,10.98
2019-04-14T22:17:42.742Z,11.93
2019-04-14T22:20:11.354Z,13.18
2019-04-14T22:22:39.810Z,15.05
2019-04-14T22:25:08.721Z,12.47
2019-04-14T22:27:37.397Z,12.18
2019-04-14T22:30:10.733Z,15.20
2019-04-14T22:32:39.339Z,13.98
2019-04-14T22:35:07.930Z,11.70
2019-04-14T22:37:36.547Z,11.75
2019-04-14T22:40:06.429Z,12.33
2019-04-14T22:42:34.952Z,12.07
2019-04-14T22:45:04.516Z,13.85
2019-04-14T22:47:34.018Z,12.70
2019-04-14T22:50:02.528Z,12.58
2019-04-14T22:52:30.994Z,11.43
2019-04-14T22:54:59.422Z,13.30
2019-04-14T22:57:27.884Z,13.18
2019-04-14T22:59:56.381Z,14.83
2019-04-14T23:02:29.347Z,13.38
2019-04-14T23:05:02.632Z,13.25
2019-04-14T23:07:32.781Z,12.80
2019-04-14T23:10:02.971Z,12.68
2019-04-14T23:12:33.195Z,12.47
2019-04-14T23:15:06.514Z,14.05
2019-04-14T23:17:36.774Z,12.82
2019-04-14T23:20:12.920Z,13.25
2019-04-14T23:22:51.992Z,12.33
2019-04-14T23:25:20.724Z,12.63
2019-04-14T23:27:49.244Z,13.32
2019-04-14T23:30:17.818Z,14.03
2019-04-14T23:32:46.435Z,16.05
2019-04-14T23:35:14.939Z,13.35
2019-04-14T23:37:43.411Z,14.65
2019-04-14T23:40:13.526Z,14.47
2019-04-14T23:42:42.089Z,13.05
2019-04-14T23:45:10.679Z,15.83
2019-04-14T23:47:39.304Z,12.93
2019-04-14T23:50:08.384Z,17.15
2019-04-14T23:52:36.881Z,14.30
2019-04-14T23:55:07.006Z,14.78
2019-04-14T23:57:35.482Z,14.28
